sensor_id;sensor_type;location;lat;lon;timestamp;pressure;altitude;pressure_sealevel;temperature;humidity
68634;BME280;55625;47.072;22.192;2023-05-10T00:01:09;100120.44;;;10.67;73.26
68634;BME280;55625;47.072;22.192;2023-05-10T00:03:35;100116.09;;;10.63;73.08
68634;BME280;55625;47.072;22.192;2023-05-10T00:06:01;100122.56;;;10.63;72.71
68634;BME280;55625;47.072;22.192;2023-05-10T00:08:27;100120.97;;;10.62;72.78
68634;BME280;55625;47.072;22.192;2023-05-10T00:10:53;100120.16;;;10.62;73.03
68634;BME280;55625;47.072;22.192;2023-05-10T00:13:19;100114.59;;;10.58;73.61
68634;BME280;55625;47.072;22.192;2023-05-10T00:15:45;100109.34;;;10.56;72.37
68634;BME280;55625;47.072;22.192;2023-05-10T00:18:10;100115.47;;;10.55;73.24
68634;BME280;55625;47.072;22.192;2023-05-10T00:20:36;100111.41;;;10.56;72.97
68634;BME280;55625;47.072;22.192;2023-05-10T00:23:02;100105.13;;;10.48;75.07
68634;BME280;55625;47.072;22.192;2023-05-10T00:25:28;100115.75;;;10.44;74.51
68634;BME280;55625;47.072;22.192;2023-05-10T00:27:54;100110.53;;;10.43;74.69
68634;BME280;55625;47.072;22.192;2023-05-10T00:30:21;100108.56;;;10.40;75.80
68634;BME280;55625;47.072;22.192;2023-05-10T00:32:46;100100.56;;;10.35;76.51
68634;BME280;55625;47.072;22.192;2023-05-10T00:35:13;100103.06;;;10.33;76.58
68634;BME280;55625;47.072;22.192;2023-05-10T00:37:39;100102.25;;;10.32;77.19
68634;BME280;55625;47.072;22.192;2023-05-10T00:40:06;100095.00;;;10.31;77.00
68634;BME280;55625;47.072;22.192;2023-05-10T00:42:33;100112.00;;;10.31;77.18
68634;BME280;55625;47.072;22.192;2023-05-10T00:44:59;100098.28;;;10.30;77.20
68634;BME280;55625;47.072;22.192;2023-05-10T00:47:24;100102.00;;;10.26;77.95
68634;BME280;55625;47.072;22.192;2023-05-10T00:49:50;100095.16;;;10.24;78.12
68634;BME280;55625;47.072;22.192;2023-05-10T00:52:17;100097.28;;;10.20;78.88
68634;BME280;55625;47.072;22.192;2023-05-10T00:54:43;100095.63;;;10.22;79.20
68634;BME280;55625;47.072;22.192;2023-05-10T00:57:09;100090.53;;;10.14;80.18
68634;BME280;55625;47.072;22.192;2023-05-10T00:59:35;100090.97;;;10.12;80.32
68634;BME280;55625;47.072;22.192;2023-05-10T01:02:01;100084.06;;;10.13;80.43
68634;BME280;55625;47.072;22.192;2023-05-10T01:04:27;100098.69;;;10.12;80.88
68634;BME280;55625;47.072;22.192;2023-05-10T01:06:54;100095.47;;;10.10;80.82
68634;BME280;55625;47.072;22.192;2023-05-10T01:09:21;100094.25;;;10.11;81.68
68634;BME280;55625;47.072;22.192;2023-05-10T01:11:47;100093.47;;;10.10;81.44
68634;BME280;55625;47.072;22.192;2023-05-10T01:14:15;100088.19;;;10.09;81.76
68634;BME280;55625;47.072;22.192;2023-05-10T01:16:44;100088.19;;;10.09;81.92
68634;BME280;55625;47.072;22.192;2023-05-10T01:19:29;100087.50;;;10.05;81.82
68634;BME280;55625;47.072;22.192;2023-05-10T01:34:14;100093.25;;;10.01;81.64
68634;BME280;55625;47.072;22.192;2023-05-10T01:37:06;100090.16;;;9.95;82.05
68634;BME280;55625;47.072;22.192;2023-05-10T01:39:47;100088.56;;;9.94;82.56
68634;BME280;55625;47.072;22.192;2023-05-10T01:42:21;100077.28;;;9.91;82.81
68634;BME280;55625;47.072;22.192;2023-05-10T01:45:17;100084.56;;;9.92;82.60
68634;BME280;55625;47.072;22.192;2023-05-10T01:47:50;100085.09;;;9.87;82.77
68634;BME280;55625;47.072;22.192;2023-05-10T01:50:24;100081.47;;;9.86;83.14
68634;BME280;55625;47.072;22.192;2023-05-10T01:52:57;100079.94;;;9.82;83.59
68634;BME280;55625;47.072;22.192;2023-05-10T01:55:28;100082.03;;;9.78;83.51
68634;BME280;55625;47.072;22.192;2023-05-10T01:58:07;100084.88;;;9.78;83.58
68634;BME280;55625;47.072;22.192;2023-05-10T02:00:35;100077.56;;;9.80;84.37
68634;BME280;55625;47.072;22.192;2023-05-10T02:03:07;100073.91;;;9.80;84.17
68634;BME280;55625;47.072;22.192;2023-05-10T02:05:35;100073.53;;;9.78;84.69
68634;BME280;55625;47.072;22.192;2023-05-10T02:08:05;100067.16;;;9.74;84.93
68634;BME280;55625;47.072;22.192;2023-05-10T02:10:34;100070.50;;;9.69;86.05
68634;BME280;55625;47.072;22.192;2023-05-10T02:13:02;100067.31;;;9.67;85.58
68634;BME280;55625;47.072;22.192;2023-05-10T02:15:30;100065.38;;;9.63;85.86
68634;BME280;55625;47.072;22.192;2023-05-10T02:17:58;100070.31;;;9.59;85.79
68634;BME280;55625;47.072;22.192;2023-05-10T02:20:26;100068.88;;;9.51;87.44
68634;BME280;55625;47.072;22.192;2023-05-10T02:22:55;100063.34;;;9.44;86.80
68634;BME280;55625;47.072;22.192;2023-05-10T02:25:23;100060.69;;;9.37;87.75
68634;BME280;55625;47.072;22.192;2023-05-10T02:27:54;100063.94;;;9.36;88.29
68634;BME280;55625;47.072;22.192;2023-05-10T02:30:22;100067.22;;;9.34;87.81
68634;BME280;55625;47.072;22.192;2023-05-10T02:32:50;100063.31;;;9.28;88.13
68634;BME280;55625;47.072;22.192;2023-05-10T02:35:17;100057.38;;;9.22;87.50
68634;BME280;55625;47.072;22.192;2023-05-10T02:37:44;100064.75;;;9.16;88.57
68634;BME280;55625;47.072;22.192;2023-05-10T02:40:10;100062.72;;;9.17;88.32
68634;BME280;55625;47.072;22.192;2023-05-10T02:42:38;100061.91;;;9.16;88.96
68634;BME280;55625;47.072;22.192;2023-05-10T02:45:11;100060.75;;;9.14;88.16
68634;BME280;55625;47.072;22.192;2023-05-10T02:47:38;100059.59;;;9.11;88.67
68634;BME280;55625;47.072;22.192;2023-05-10T02:50:05;100054.81;;;9.08;89.09
68634;BME280;55625;47.072;22.192;2023-05-10T02:52:50;100064.63;;;9.03;89.22
68634;BME280;55625;47.072;22.192;2023-05-10T02:55:22;100048.50;;;9.00;89.77
68634;BME280;55625;47.072;22.192;2023-05-10T02:58:00;100058.66;;;8.98;89.52
68634;BME280;55625;47.072;22.192;2023-05-10T03:00:26;100055.91;;;8.94;88.63
68634;BME280;55625;47.072;22.192;2023-05-10T03:02:52;100054.75;;;8.92;89.30
68634;BME280;55625;47.072;22.192;2023-05-10T03:05:19;100053.59;;;8.89;89.15
68634;BME280;55625;47.072;22.192;2023-05-10T03:07:46;100052.78;;;8.89;88.86
68634;BME280;55625;47.072;22.192;2023-05-10T03:10:11;100058.50;;;8.85;89.92
68634;BME280;55625;47.072;22.192;2023-05-10T03:12:52;100052.09;;;8.81;89.04
68634;BME280;55625;47.072;22.192;2023-05-10T03:16:01;100049.72;;;8.80;89.35
68634;BME280;55625;47.072;22.192;2023-05-10T03:18:43;100057.47;;;8.76;89.83
68634;BME280;55625;47.072;22.192;2023-05-10T03:21:12;100053.84;;;8.75;89.12
68634;BME280;55625;47.072;22.192;2023-05-10T03:24:05;100052.25;;;8.74;89.92
68634;BME280;55625;47.072;22.192;2023-05-10T03:26:33;100056.81;;;8.68;90.83
68634;BME280;55625;47.072;22.192;2023-05-10T03:28:59;100046.78;;;8.63;91.87
68634;BME280;55625;47.072;22.192;2023-05-10T03:31:26;100053.75;;;8.59;92.26
68634;BME280;55625;47.072;22.192;2023-05-10T03:33:52;100054.28;;;8.50;92.87
68634;BME280;55625;47.072;22.192;2023-05-10T03:36:19;100058.84;;;8.44;93.29
68634;BME280;55625;47.072;22.192;2023-05-10T03:38:45;100050.44;;;8.40;93.04
68634;BME280;55625;47.072;22.192;2023-05-10T03:41:11;100046.75;;;8.44;92.42
68634;BME280;55625;47.072;22.192;2023-05-10T03:43:36;100043.78;;;8.51;89.39
68634;BME280;55625;47.072;22.192;2023-05-10T03:46:04;100036.81;;;8.55;89.10
68634;BME280;55625;47.072;22.192;2023-05-10T03:48:31;100039.47;;;8.66;87.44
68634;BME280;55625;47.072;22.192;2023-05-10T03:50:57;100036.44;;;8.77;85.11
68634;BME280;55625;47.072;22.192;2023-05-10T03:53:23;100034.56;;;8.90;85.74
68634;BME280;55625;47.072;22.192;2023-05-10T03:55:49;100033.47;;;9.03;84.01
68634;BME280;55625;47.072;22.192;2023-05-10T03:58:15;100032.75;;;9.19;83.59
68634;BME280;55625;47.072;22.192;2023-05-10T04:00:41;100030.69;;;9.40;81.99
68634;BME280;55625;47.072;22.192;2023-05-10T04:03:13;100032.06;;;9.51;81.08
68634;BME280;55625;47.072;22.192;2023-05-10T04:05:39;100029.41;;;9.60;81.15
68634;BME280;55625;47.072;22.192;2023-05-10T04:08:05;100038.00;;;9.73;81.96
68634;BME280;55625;47.072;22.192;2023-05-10T04:10:32;100042.47;;;9.90;79.69
68634;BME280;55625;47.072;22.192;2023-05-10T04:12:58;100037.91;;;10.13;79.62
68634;BME280;55625;47.072;22.192;2023-05-10T04:15:24;100032.13;;;10.33;79.48
68634;BME280;55625;47.072;22.192;2023-05-10T04:17:49;100040.56;;;10.52;79.36
68634;BME280;55625;47.072;22.192;2023-05-10T04:20:16;100043.34;;;10.69;77.56
68634;BME280;55625;47.072;22.192;2023-05-10T04:22:42;100034.44;;;10.83;76.94
68634;BME280;55625;47.072;22.192;2023-05-10T04:25:08;100039.38;;;10.95;74.25
68634;BME280;55625;47.072;22.192;2023-05-10T04:27:34;100036.63;;;10.92;74.88
68634;BME280;55625;47.072;22.192;2023-05-10T04:30:00;100038.28;;;11.05;75.26
68634;BME280;55625;47.072;22.192;2023-05-10T04:32:26;100039.34;;;11.11;74.16
68634;BME280;55625;47.072;22.192;2023-05-10T04:34:52;100040.50;;;11.27;73.46
68634;BME280;55625;47.072;22.192;2023-05-10T04:37:18;100042.59;;;11.39;72.39
68634;BME280;55625;47.072;22.192;2023-05-10T04:39:44;100039.19;;;11.44;71.55
68634;BME280;55625;47.072;22.192;2023-05-10T04:42:10;100039.53;;;11.46;71.71
68634;BME280;55625;47.072;22.192;2023-05-10T04:44:36;100044.66;;;11.51;70.46
68634;BME280;55625;47.072;22.192;2023-05-10T04:47:03;100050.22;;;11.55;70.74
68634;BME280;55625;47.072;22.192;2023-05-10T04:49:29;100043.31;;;11.68;70.56
68634;BME280;55625;47.072;22.192;2023-05-10T04:51:55;100046.28;;;11.77;69.59
68634;BME280;55625;47.072;22.192;2023-05-10T04:54:21;100042.44;;;11.84;72.06
68634;BME280;55625;47.072;22.192;2023-05-10T04:56:47;100045.50;;;12.02;69.36
68634;BME280;55625;47.072;22.192;2023-05-10T04:59:13;100042.34;;;12.00;69.30
68634;BME280;55625;47.072;22.192;2023-05-10T05:01:39;100046.66;;;12.05;71.25
68634;BME280;55625;47.072;22.192;2023-05-10T05:04:05;100044.94;;;12.07;69.65
68634;BME280;55625;47.072;22.192;2023-05-10T05:06:32;100045.16;;;12.13;68.97
68634;BME280;55625;47.072;22.192;2023-05-10T05:08:58;100049.81;;;12.20;68.26
68634;BME280;55625;47.072;22.192;2023-05-10T05:11:24;100044.38;;;12.25;68.75
68634;BME280;55625;47.072;22.192;2023-05-10T05:13:51;100046.59;;;12.43;70.24
68634;BME280;55625;47.072;22.192;2023-05-10T05:16:17;100047.47;;;12.65;69.33
68634;BME280;55625;47.072;22.192;2023-05-10T05:18:43;100038.94;;;12.53;67.53
68634;BME280;55625;47.072;22.192;2023-05-10T05:21:16;100036.72;;;12.69;69.40
68634;BME280;55625;47.072;22.192;2023-05-10T05:23:42;100038.69;;;12.94;68.33
68634;BME280;55625;47.072;22.192;2023-05-10T05:26:08;100029.88;;;13.01;64.94
68634;BME280;55625;47.072;22.192;2023-05-10T05:28:34;100031.22;;;12.88;65.48
68634;BME280;55625;47.072;22.192;2023-05-10T05:31:06;100031.59;;;12.99;66.99
68634;BME280;55625;47.072;22.192;2023-05-10T05:33:33;100033.06;;;13.03;68.67
68634;BME280;55625;47.072;22.192;2023-05-10T05:36:04;100033.19;;;13.00;67.07
68634;BME280;55625;47.072;22.192;2023-05-10T05:38:30;100037.13;;;12.81;68.38
68634;BME280;55625;47.072;22.192;2023-05-10T05:40:56;100033.97;;;12.79;65.89
68634;BME280;55625;47.072;22.192;2023-05-10T05:43:22;100042.72;;;12.84;64.82
68634;BME280;55625;47.072;22.192;2023-05-10T05:45:48;100042.44;;;12.69;64.78
68634;BME280;55625;47.072;22.192;2023-05-10T05:48:14;100045.53;;;12.62;68.28
68634;BME280;55625;47.072;22.192;2023-05-10T05:50:40;100045.41;;;12.66;65.02
68634;BME280;55625;47.072;22.192;2023-05-10T05:53:06;100045.88;;;12.64;66.75
68634;BME280;55625;47.072;22.192;2023-05-10T05:55:32;100047.00;;;12.54;65.59
68634;BME280;55625;47.072;22.192;2023-05-10T05:57:58;100048.06;;;12.48;65.21
68634;BME280;55625;47.072;22.192;2023-05-10T06:00:24;100053.53;;;12.42;65.78
68634;BME280;55625;47.072;22.192;2023-05-10T06:02:50;100048.19;;;12.44;68.23
68634;BME280;55625;47.072;22.192;2023-05-10T06:05:16;100046.81;;;12.49;67.82
68634;BME280;55625;47.072;22.192;2023-05-10T06:07:41;100039.38;;;12.64;67.49
68634;BME280;55625;47.072;22.192;2023-05-10T06:10:08;100040.59;;;12.75;67.97
68634;BME280;55625;47.072;22.192;2023-05-10T06:12:34;100032.13;;;13.06;67.58
68634;BME280;55625;47.072;22.192;2023-05-10T06:15:00;100035.44;;;13.05;69.32
68634;BME280;55625;47.072;22.192;2023-05-10T06:17:26;100031.88;;;12.92;65.48
68634;BME280;55625;47.072;22.192;2023-05-10T06:19:53;100040.34;;;13.04;65.33
68634;BME280;55625;47.072;22.192;2023-05-10T06:22:18;100036.72;;;13.04;63.09
68634;BME280;55625;47.072;22.192;2023-05-10T06:24:44;100040.34;;;13.04;67.55
68634;BME280;55625;47.072;22.192;2023-05-10T06:27:10;100035.19;;;13.12;65.17
68634;BME280;55625;47.072;22.192;2023-05-10T06:29:36;100034.25;;;13.15;65.80
68634;BME280;55625;47.072;22.192;2023-05-10T06:32:01;100030.13;;;13.16;65.84
68634;BME280;55625;47.072;22.192;2023-05-10T06:34:27;100029.81;;;13.14;68.45
68634;BME280;55625;47.072;22.192;2023-05-10T06:36:53;100029.25;;;13.19;65.43
68634;BME280;55625;47.072;22.192;2023-05-10T06:39:19;100028.06;;;13.29;66.22
68634;BME280;55625;47.072;22.192;2023-05-10T06:41:45;100028.75;;;13.43;66.20
68634;BME280;55625;47.072;22.192;2023-05-10T06:44:11;100034.25;;;13.59;63.83
68634;BME280;55625;47.072;22.192;2023-05-10T06:46:37;100033.97;;;13.66;63.62
68634;BME280;55625;47.072;22.192;2023-05-10T06:49:03;100036.50;;;13.64;61.23
68634;BME280;55625;47.072;22.192;2023-05-10T06:51:29;100032.09;;;13.72;62.37
68634;BME280;55625;47.072;22.192;2023-05-10T06:53:54;100037.56;;;13.88;60.91
68634;BME280;55625;47.072;22.192;2023-05-10T06:56:20;100032.13;;;14.12;61.31
68634;BME280;55625;47.072;22.192;2023-05-10T06:58:47;100027.81;;;14.66;58.86
68634;BME280;55625;47.072;22.192;2023-05-10T07:01:14;100027.66;;;14.97;59.22
68634;BME280;55625;47.072;22.192;2023-05-10T07:03:39;100033.38;;;14.97;61.92
68634;BME280;55625;47.072;22.192;2023-05-10T07:06:06;100034.03;;;15.01;58.78
68634;BME280;55625;47.072;22.192;2023-05-10T07:08:33;100031.78;;;15.33;55.93
68634;BME280;55625;47.072;22.192;2023-05-10T07:11:04;100025.31;;;15.83;55.54
68634;BME280;55625;47.072;22.192;2023-05-10T07:13:31;100030.88;;;16.20;50.49
68634;BME280;55625;47.072;22.192;2023-05-10T07:15:58;100024.44;;;16.34;49.63
68634;BME280;55625;47.072;22.192;2023-05-10T07:18:24;100031.41;;;16.42;49.54
68634;BME280;55625;47.072;22.192;2023-05-10T07:20:51;100026.22;;;16.32;51.43
68634;BME280;55625;47.072;22.192;2023-05-10T07:23:17;100028.50;;;16.19;54.37
68634;BME280;55625;47.072;22.192;2023-05-10T07:25:50;100024.50;;;16.49;51.87
68634;BME280;55625;47.072;22.192;2023-05-10T07:28:18;100020.69;;;16.76;50.58
68634;BME280;55625;47.072;22.192;2023-05-10T07:30:44;100027.34;;;17.21;50.47
68634;BME280;55625;47.072;22.192;2023-05-10T07:33:13;100022.78;;;17.44;49.85
68634;BME280;55625;47.072;22.192;2023-05-10T07:35:39;100016.88;;;17.47;49.81
68634;BME280;55625;47.072;22.192;2023-05-10T07:38:05;100018.56;;;17.83;50.95
68634;BME280;55625;47.072;22.192;2023-05-10T07:40:31;100011.13;;;17.91;51.57
68634;BME280;55625;47.072;22.192;2023-05-10T07:42:57;100019.44;;;17.60;50.84
68634;BME280;55625;47.072;22.192;2023-05-10T07:45:23;100018.03;;;17.99;50.73
68634;BME280;55625;47.072;22.192;2023-05-10T07:47:49;100022.69;;;17.97;47.98
68634;BME280;55625;47.072;22.192;2023-05-10T07:50:15;100020.38;;;18.16;51.98
68634;BME280;55625;47.072;22.192;2023-05-10T07:52:41;100022.41;;;18.10;50.78
68634;BME280;55625;47.072;22.192;2023-05-10T07:55:08;100021.25;;;18.22;47.40
68634;BME280;55625;47.072;22.192;2023-05-10T07:57:34;100021.69;;;18.00;45.43
68634;BME280;55625;47.072;22.192;2023-05-10T08:00:01;100023.41;;;18.42;46.02
68634;BME280;55625;47.072;22.192;2023-05-10T08:02:26;100018.31;;;18.92;47.19
68634;BME280;55625;47.072;22.192;2023-05-10T08:04:52;100013.41;;;19.18;45.03
68634;BME280;55625;47.072;22.192;2023-05-10T08:07:18;100020.72;;;19.19;41.55
68634;BME280;55625;47.072;22.192;2023-05-10T08:09:44;100019.66;;;19.17;41.71
68634;BME280;55625;47.072;22.192;2023-05-10T08:12:10;100017.34;;;19.21;41.55
68634;BME280;55625;47.072;22.192;2023-05-10T08:14:36;100016.00;;;19.16;42.12
68634;BME280;55625;47.072;22.192;2023-05-10T08:17:04;100010.47;;;19.39;40.67
68634;BME280;55625;47.072;22.192;2023-05-10T08:19:30;100004.75;;;19.65;42.01
68634;BME280;55625;47.072;22.192;2023-05-10T08:21:56;100008.13;;;19.63;40.94
68634;BME280;55625;47.072;22.192;2023-05-10T08:24:22;100009.47;;;19.68;40.44
68634;BME280;55625;47.072;22.192;2023-05-10T08:26:48;100003.81;;;19.79;42.08
68634;BME280;55625;47.072;22.192;2023-05-10T08:29:15;100008.19;;;20.00;43.01
68634;BME280;55625;47.072;22.192;2023-05-10T08:31:41;100006.69;;;20.10;40.97
68634;BME280;55625;47.072;22.192;2023-05-10T08:34:06;100005.69;;;20.19;41.13
68634;BME280;55625;47.072;22.192;2023-05-10T08:36:32;100003.19;;;20.38;40.29
68634;BME280;55625;47.072;22.192;2023-05-10T08:38:59;100002.78;;;20.19;40.21
68634;BME280;55625;47.072;22.192;2023-05-10T08:41:25;100005.56;;;20.39;40.90
68634;BME280;55625;47.072;22.192;2023-05-10T08:43:53;100005.38;;;20.11;39.69
68634;BME280;55625;47.072;22.192;2023-05-10T08:46:22;100002.59;;;20.23;40.28
68634;BME280;55625;47.072;22.192;2023-05-10T08:48:50;100003.22;;;20.01;40.04
68634;BME280;55625;47.072;22.192;2023-05-10T08:51:23;100003.53;;;20.45;38.76
68634;BME280;55625;47.072;22.192;2023-05-10T08:53:52;100007.44;;;20.42;38.46
68634;BME280;55625;47.072;22.192;2023-05-10T08:56:18;100006.84;;;20.38;39.77
68634;BME280;55625;47.072;22.192;2023-05-10T08:58:47;99999.16;;;20.61;37.62
68634;BME280;55625;47.072;22.192;2023-05-10T09:01:16;100001.53;;;20.68;39.45
68634;BME280;55625;47.072;22.192;2023-05-10T09:03:42;99998.25;;;20.92;39.85
68634;BME280;55625;47.072;22.192;2023-05-10T09:06:08;99998.66;;;20.68;40.05
68634;BME280;55625;47.072;22.192;2023-05-10T09:08:36;99996.19;;;21.04;41.76
68634;BME280;55625;47.072;22.192;2023-05-10T09:11:02;100003.00;;;21.12;38.84
68634;BME280;55625;47.072;22.192;2023-05-10T09:13:28;99992.72;;;20.83;40.12
68634;BME280;55625;47.072;22.192;2023-05-10T09:15:55;99993.34;;;21.21;37.15
68634;BME280;55625;47.072;22.192;2023-05-10T09:18:21;99992.94;;;20.80;35.99
68634;BME280;55625;47.072;22.192;2023-05-10T09:20:48;99986.63;;;20.75;39.41
68634;BME280;55625;47.072;22.192;2023-05-10T09:23:14;99985.78;;;21.23;39.07
68634;BME280;55625;47.072;22.192;2023-05-10T09:25:42;99977.94;;;21.63;39.04
68634;BME280;55625;47.072;22.192;2023-05-10T09:28:08;99975.84;;;21.80;37.56
68634;BME280;55625;47.072;22.192;2023-05-10T09:30:35;99967.94;;;21.97;34.92
68634;BME280;55625;47.072;22.192;2023-05-10T09:33:02;99974.03;;;22.05;36.60
68634;BME280;55625;47.072;22.192;2023-05-10T09:35:30;99968.50;;;21.85;32.62
68634;BME280;55625;47.072;22.192;2023-05-10T09:38:03;99968.22;;;21.72;34.48
68634;BME280;55625;47.072;22.192;2023-05-10T09:40:30;99968.75;;;21.48;36.74
68634;BME280;55625;47.072;22.192;2023-05-10T09:43:08;99966.91;;;21.67;35.58
68634;BME280;55625;47.072;22.192;2023-05-10T09:45:35;99961.38;;;21.97;33.68
68634;BME280;55625;47.072;22.192;2023-05-10T09:48:02;99958.50;;;21.58;31.95
68634;BME280;55625;47.072;22.192;2023-05-10T09:50:29;99953.78;;;21.66;33.23
68634;BME280;55625;47.072;22.192;2023-05-10T09:53:01;99943.03;;;22.06;32.27
68634;BME280;55625;47.072;22.192;2023-05-10T09:55:42;99955.31;;;22.23;32.89
68634;BME280;55625;47.072;22.192;2023-05-10T09:58:11;99943.00;;;21.94;34.70
68634;BME280;55625;47.072;22.192;2023-05-10T10:00:43;99948.19;;;22.41;32.94
68634;BME280;55625;47.072;22.192;2023-05-10T10:03:20;99938.25;;;21.97;31.55
68634;BME280;55625;47.072;22.192;2023-05-10T10:05:48;99945.66;;;21.53;32.43
68634;BME280;55625;47.072;22.192;2023-05-10T10:08:14;99947.75;;;21.53;33.85
68634;BME280;55625;47.072;22.192;2023-05-10T10:10:41;99938.03;;;21.56;34.98
68634;BME280;55625;47.072;22.192;2023-05-10T10:13:08;99930.88;;;22.35;34.02
68634;BME280;55625;47.072;22.192;2023-05-10T10:15:35;99940.13;;;21.89;32.32
68634;BME280;55625;47.072;22.192;2023-05-10T10:18:01;99932.25;;;21.73;35.75
68634;BME280;55625;47.072;22.192;2023-05-10T10:20:29;99946.16;;;21.35;33.44
68634;BME280;55625;47.072;22.192;2023-05-10T10:22:55;99935.38;;;21.24;37.10
68634;BME280;55625;47.072;22.192;2023-05-10T10:25:21;99935.00;;;20.83;35.35
68634;BME280;55625;47.072;22.192;2023-05-10T10:30:49;99919.63;;;19.95;39.41
68634;BME280;55625;47.072;22.192;2023-05-10T10:33:48;99914.47;;;20.10;38.48
68634;BME280;55625;47.072;22.192;2023-05-10T10:36:17;99910.22;;;20.49;39.61
68634;BME280;55625;47.072;22.192;2023-05-10T10:41:36;99913.00;;;21.02;37.98
68634;BME280;55625;47.072;22.192;2023-05-10T10:49:31;99898.25;;;20.78;35.37
68634;BME280;55625;47.072;22.192;2023-05-10T10:52:35;99904.16;;;21.39;37.31
68634;BME280;55625;47.072;22.192;2023-05-10T10:55:14;99896.03;;;21.55;38.57
68634;BME280;55625;47.072;22.192;2023-05-10T11:00:31;99894.41;;;21.93;33.00
68634;BME280;55625;47.072;22.192;2023-05-10T11:03:07;99897.78;;;21.97;35.21
68634;BME280;55625;47.072;22.192;2023-05-10T11:08:34;99902.88;;;22.60;35.11
68634;BME280;55625;47.072;22.192;2023-05-10T11:16:19;99882.56;;;21.91;37.07
68634;BME280;55625;47.072;22.192;2023-05-10T11:19:07;99883.59;;;21.99;35.28
68634;BME280;55625;47.072;22.192;2023-05-10T11:24:30;99874.31;;;22.34;35.33
68634;BME280;55625;47.072;22.192;2023-05-10T11:26:56;99877.13;;;21.48;35.54
68634;BME280;55625;47.072;22.192;2023-05-10T11:29:22;99869.75;;;21.19;38.32
68634;BME280;55625;47.072;22.192;2023-05-10T11:31:49;99872.06;;;20.87;36.98
68634;BME280;55625;47.072;22.192;2023-05-10T11:34:28;99877.00;;;20.64;36.45
68634;BME280;55625;47.072;22.192;2023-05-10T11:36:57;99870.72;;;20.71;37.27
68634;BME280;55625;47.072;22.192;2023-05-10T11:39:31;99878.94;;;19.82;37.18
68634;BME280;55625;47.072;22.192;2023-05-10T11:41:57;99876.81;;;19.77;35.70
68634;BME280;55625;47.072;22.192;2023-05-10T11:44:33;99878.31;;;20.09;37.02
68634;BME280;55625;47.072;22.192;2023-05-10T11:47:00;99878.25;;;19.98;38.31
68634;BME280;55625;47.072;22.192;2023-05-10T11:49:26;99867.31;;;20.13;38.82
68634;BME280;55625;47.072;22.192;2023-05-10T11:51:52;99872.78;;;20.54;39.67
68634;BME280;55625;47.072;22.192;2023-05-10T11:54:18;99871.63;;;20.35;35.58
68634;BME280;55625;47.072;22.192;2023-05-10T11:56:43;99872.19;;;19.53;36.76
68634;BME280;55625;47.072;22.192;2023-05-10T11:59:13;99876.59;;;19.86;37.76
68634;BME280;55625;47.072;22.192;2023-05-10T12:01:39;99869.81;;;19.89;38.30
68634;BME280;55625;47.072;22.192;2023-05-10T12:04:06;99856.84;;;20.10;37.17
68634;BME280;55625;47.072;22.192;2023-05-10T12:06:39;99869.94;;;20.11;37.59
68634;BME280;55625;47.072;22.192;2023-05-10T12:09:07;99869.72;;;20.21;40.20
68634;BME280;55625;47.072;22.192;2023-05-10T12:11:38;99864.91;;;20.55;35.99
68634;BME280;55625;47.072;22.192;2023-05-10T12:14:05;99869.44;;;20.89;36.70
68634;BME280;55625;47.072;22.192;2023-05-10T12:16:33;99854.25;;;21.05;35.60
68634;BME280;55625;47.072;22.192;2023-05-10T12:19:00;99855.31;;;21.14;36.04
68634;BME280;55625;47.072;22.192;2023-05-10T12:21:28;99855.09;;;21.45;36.52
68634;BME280;55625;47.072;22.192;2023-05-10T12:24:03;99851.09;;;21.09;36.39
68634;BME280;55625;47.072;22.192;2023-05-10T12:26:30;99842.47;;;21.31;35.90
68634;BME280;55625;47.072;22.192;2023-05-10T12:29:17;99850.56;;;20.88;34.09
68634;BME280;55625;47.072;22.192;2023-05-10T12:31:59;99855.78;;;20.78;33.55
68634;BME280;55625;47.072;22.192;2023-05-10T12:34:35;99860.34;;;20.31;31.21
68634;BME280;55625;47.072;22.192;2023-05-10T12:37:04;99855.78;;;20.13;30.83
68634;BME280;55625;47.072;22.192;2023-05-10T12:39:41;99860.69;;;19.96;35.00
68634;BME280;55625;47.072;22.192;2023-05-10T12:42:07;99854.41;;;19.55;36.09
68634;BME280;55625;47.072;22.192;2023-05-10T12:44:33;99851.97;;;19.85;34.97
68634;BME280;55625;47.072;22.192;2023-05-10T12:46:59;99837.53;;;20.28;34.77
68634;BME280;55625;47.072;22.192;2023-05-10T12:49:25;99839.16;;;20.40;33.51
68634;BME280;55625;47.072;22.192;2023-05-10T12:51:51;99837.41;;;20.65;32.09
68634;BME280;55625;47.072;22.192;2023-05-10T12:54:17;99843.75;;;20.97;34.11
68634;BME280;55625;47.072;22.192;2023-05-10T12:56:43;99824.06;;;21.01;32.29
68634;BME280;55625;47.072;22.192;2023-05-10T12:59:09;99828.00;;;20.87;32.30
68634;BME280;55625;47.072;22.192;2023-05-10T13:01:35;99821.19;;;20.95;34.50
68634;BME280;55625;47.072;22.192;2023-05-10T13:04:00;99825.38;;;20.94;33.47
68634;BME280;55625;47.072;22.192;2023-05-10T13:06:26;99823.00;;;20.76;33.65
68634;BME280;55625;47.072;22.192;2023-05-10T13:08:52;99819.03;;;20.51;35.25
68634;BME280;55625;47.072;22.192;2023-05-10T13:11:18;99828.63;;;20.31;34.86
68634;BME280;55625;47.072;22.192;2023-05-10T13:13:45;99813.16;;;20.23;34.23
68634;BME280;55625;47.072;22.192;2023-05-10T13:16:11;99813.38;;;20.20;34.13
68634;BME280;55625;47.072;22.192;2023-05-10T13:18:37;99809.50;;;20.34;33.23
68634;BME280;55625;47.072;22.192;2023-05-10T13:21:02;99812.91;;;20.38;34.40
68634;BME280;55625;47.072;22.192;2023-05-10T13:23:31;99818.66;;;20.21;34.89
68634;BME280;55625;47.072;22.192;2023-05-10T13:25:56;99804.81;;;19.77;33.87
68634;BME280;55625;47.072;22.192;2023-05-10T13:28:22;99804.31;;;19.84;33.67